Time;durP1;ratioP1;P1;durP2;ratioP2;P2;SDS_P1;SDS_P2;PMS_P1;PMS_P2;Temp;Humidity;BMP_temperature;BMP_pressure;BME280_temperature;BME280_humidity;BME280_pressure;Samples;Min_cycle;Max_cycle;Signal;HPM_P1;HPM_P2
2022/03/09 00:01:30;;;;;;;16.67;8.18;;;11.70;47.30;;;;;;6247834;28;20069;-68
2022/03/09 00:04:31;;;;;;;18.80;8.40;;;11.70;47.20;;;;;;6257910;28;20260;-68
2022/03/09 00:07:32;;;;;;;21.95;9.10;;;11.80;47.20;;;;;;6272364;28;20363;-68
2022/03/09 00:10:33;;;;;;;22.95;9.65;;;11.80;47.20;;;;;;6272996;28;20056;-68
2022/03/09 00:13:33;;;;;;;20.70;8.90;;;11.80;47.10;;;;;;6271672;28;20400;-68
2022/03/09 00:16:34;;;;;;;22.60;9.32;;;11.70;47.60;;;;;;6272972;28;20033;-68
2022/03/09 00:19:35;;;;;;;21.55;9.45;;;11.80;47.10;;;;;;6273668;28;20033;-68
2022/03/09 00:22:36;;;;;;;19.58;9.10;;;11.80;47.00;;;;;;6271026;28;20048;-69
2022/03/09 00:25:38;;;;;;;19.90;8.55;;;11.80;47.00;;;;;;6272352;28;20037;-69
2022/03/09 00:28:40;;;;;;;22.20;9.27;;;11.80;47.10;;;;;;6264161;28;20371;-69
2022/03/09 00:31:41;;;;;;;23.98;8.85;;;11.80;47.00;;;;;;6248226;28;20042;-69
2022/03/09 00:34:42;;;;;;;23.23;8.77;;;11.70;47.00;;;;;;6249561;28;20041;-69
2022/03/09 00:37:43;;;;;;;19.02;8.70;;;11.70;47.20;;;;;;6248523;28;20129;-69
2022/03/09 00:40:47;;;;;;;22.55;8.77;;;11.70;47.30;;;;;;6248710;28;20410;-68
2022/03/09 00:43:48;;;;;;;22.58;9.40;;;11.60;47.40;;;;;;6247281;28;20068;-68
2022/03/09 00:46:49;;;;;;;28.17;9.25;;;11.60;47.50;;;;;;6247529;28;20034;-69
2022/03/09 00:49:50;;;;;;;23.38;9.88;;;11.60;47.40;;;;;;6247327;28;20421;-69
2022/03/09 00:52:51;;;;;;;16.83;8.25;;;11.60;47.40;;;;;;6263336;28;20517;-69
2022/03/09 00:55:52;;;;;;;22.98;9.13;;;11.60;47.40;;;;;;6248599;28;20056;-68
2022/03/09 00:58:53;;;;;;;19.65;8.82;;;11.60;47.40;;;;;;6247098;28;20034;-69
2022/03/09 01:01:54;;;;;;;20.70;8.25;;;11.70;47.50;;;;;;6256814;28;20130;-68
2022/03/09 01:04:54;;;;;;;18.27;8.63;;;11.60;47.40;;;;;;6277246;28;20045;-69
2022/03/09 01:07:55;;;;;;;19.63;8.85;;;11.60;48.00;;;;;;6277182;28;20040;-68
2022/03/09 01:10:56;;;;;;;16.92;8.52;;;11.60;47.40;;;;;;6277470;28;20362;-69
2022/03/09 01:13:57;;;;;;;16.30;7.97;;;11.60;47.40;;;;;;6276355;28;20048;-68
2022/03/09 01:16:58;;;;;;;17.02;8.27;;;11.60;47.30;;;;;;6276324;28;20029;-68
2022/03/09 01:19:59;;;;;;;19.63;8.38;;;11.60;47.40;;;;;;6276142;28;20336;-68
2022/03/09 01:23:00;;;;;;;16.92;8.25;;;11.60;47.40;;;;;;6276663;28;20120;-69
2022/03/09 01:26:02;;;;;;;17.80;8.95;;;11.60;47.40;;;;;;6277363;28;20044;-69
2022/03/09 01:29:03;;;;;;;22.58;8.48;;;11.50;47.40;;;;;;6275830;28;20033;-69
2022/03/09 01:32:05;;;;;;;19.55;9.30;;;11.50;47.50;;;;;;6277469;28;20040;-68
2022/03/09 01:35:06;;;;;;;17.70;8.88;;;11.50;47.50;;;;;;6250711;28;20069;-68
2022/03/09 01:38:07;;;;;;;22.70;9.18;;;11.50;47.60;;;;;;6252032;28;20033;-69
2022/03/09 01:41:08;;;;;;;21.25;9.32;;;11.50;47.70;;;;;;6234612;28;20128;-68
2022/03/09 01:44:11;;;;;;;20.02;9.05;;;11.40;47.60;;;;;;6250532;28;20429;-69
2022/03/09 01:47:12;;;;;;;24.10;10.20;;;11.50;47.60;;;;;;6259109;28;20064;-68
2022/03/09 01:50:14;;;;;;;19.52;9.18;;;11.50;47.70;;;;;;6275695;28;20044;-68
2022/03/09 01:53:17;;;;;;;29.20;13.25;;;11.50;47.70;;;;;;6275100;28;20037;-68
2022/03/09 01:56:20;;;;;;;96.45;36.33;;;11.50;47.80;;;;;;6276515;28;20037;-67
2022/03/09 01:59:21;;;;;;;33.85;13.27;;;11.50;47.90;;;;;;6274920;28;20528;-68
2022/03/09 02:02:22;;;;;;;27.20;11.35;;;11.40;48.00;;;;;;6276245;28;20048;-68
2022/03/09 02:05:23;;;;;;;30.17;10.85;;;11.40;48.10;;;;;;6274931;28;20057;-67
2022/03/09 02:11:43;;;;;;;23.02;9.93;;;11.30;48.40;;;;;;6266547;28;20094;-68
2022/03/09 02:14:46;;;;;;;25.02;11.68;;;11.30;48.60;;;;;;6255840;28;20059;-68
2022/03/09 02:17:47;;;;;;;24.20;10.00;;;11.30;48.70;;;;;;6274551;28;20039;-67
2022/03/09 02:20:50;;;;;;;27.77;10.65;;;11.40;49.00;;;;;;6265479;28;20029;-67
2022/03/09 02:23:54;;;;;;;23.95;10.57;;;11.30;49.10;;;;;;6269134;28;20036;-67
2022/03/09 02:26:55;;;;;;;21.00;11.05;;;11.30;49.30;;;;;;6274523;28;20037;-69
2022/03/09 02:29:56;;;;;;;23.35;10.13;;;11.30;49.40;;;;;;6273622;28;20075;-68
2022/03/09 02:32:57;;;;;;;25.08;10.18;;;11.30;49.30;;;;;;6274832;28;20029;-68
2022/03/09 02:35:58;;;;;;;19.02;9.48;;;11.30;49.20;;;;;;6273121;28;20045;-68
2022/03/09 02:38:59;;;;;;;20.90;9.45;;;11.40;49.30;;;;;;6271647;28;20098;-68
2022/03/09 02:42:00;;;;;;;21.05;9.40;;;11.40;49.20;;;;;;6273873;28;20512;-67
2022/03/09 02:45:02;;;;;;;26.83;11.18;;;11.40;49.20;;;;;;6273506;28;20025;-67
2022/03/09 02:48:03;;;;;;;28.65;10.98;;;11.40;49.30;;;;;;6272596;28;20029;-69
2022/03/09 02:51:04;;;;;;;26.00;11.10;;;11.30;49.40;;;;;;6273554;28;20519;-68
2022/03/09 02:54:05;;;;;;;22.35;11.43;;;11.30;49.50;;;;;;6273343;28;20045;-68
2022/03/09 02:57:07;;;;;;;28.92;11.75;;;11.20;49.50;;;;;;6266007;28;20397;-68
2022/03/09 03:00:09;;;;;;;32.33;12.32;;;11.10;49.50;;;;;;6272752;28;20041;-70
2022/03/09 03:03:10;;;;;;;23.50;11.48;;;11.10;49.50;;;;;;6274599;28;20040;-67
2022/03/09 03:06:12;;;;;;;23.77;11.10;;;11.10;49.50;;;;;;6273363;28;20056;-69
2022/03/09 03:09:13;;;;;;;31.10;12.05;;;11.00;49.40;;;;;;6255523;28;20033;-69
2022/03/09 03:12:14;;;;;;;25.88;10.82;;;11.00;49.40;;;;;;6273609;28;20465;-69
2022/03/09 03:15:15;;;;;;;25.75;11.48;;;11.00;49.50;;;;;;6273294;28;20450;-69
2022/03/09 03:18:16;;;;;;;28.23;11.98;;;11.00;49.50;;;;;;6273327;28;20336;-69
2022/03/09 03:21:17;;;;;;;28.85;11.13;;;10.90;49.60;;;;;;6273135;28;20051;-69
2022/03/09 03:24:18;;;;;;;25.63;11.23;;;10.90;49.80;;;;;;6272769;28;20128;-69
2022/03/09 03:27:20;;;;;;;26.13;11.20;;;10.80;50.00;;;;;;6272080;28;20434;-69
2022/03/09 03:30:21;;;;;;;32.53;12.05;;;10.70;50.10;;;;;;6255343;28;20036;-69
2022/03/09 03:33:22;;;;;;;45.20;12.23;;;10.60;50.20;;;;;;6271588;28;20025;-68
2022/03/09 03:36:23;;;;;;;28.60;12.02;;;10.50;50.40;;;;;;6272808;28;20121;-69
2022/03/09 03:39:24;;;;;;;24.52;10.65;;;10.40;50.50;;;;;;6272694;28;20036;-69
2022/03/09 03:42:25;;;;;;;29.52;11.75;;;10.40;50.60;;;;;;6271832;28;20143;-69
2022/03/09 03:45:26;;;;;;;27.67;11.30;;;10.40;50.60;;;;;;6271656;28;20032;-70
2022/03/09 03:48:27;;;;;;;29.65;11.10;;;10.30;50.70;;;;;;6272477;28;20036;-68
2022/03/09 03:51:28;;;;;;;28.92;12.27;;;10.30;50.70;;;;;;6273135;28;20048;-68
2022/03/09 03:54:29;;;;;;;27.88;12.23;;;10.20;50.80;;;;;;6270337;28;20036;-68
2022/03/09 03:57:30;;;;;;;31.75;11.27;;;10.20;50.80;;;;;;6271701;28;20037;-68
2022/03/09 04:00:31;;;;;;;30.67;12.52;;;10.10;50.90;;;;;;6271019;28;20041;-69
2022/03/09 04:03:31;;;;;;;29.23;12.23;;;10.10;51.00;;;;;;6272250;28;20037;-68
2022/03/09 04:06:32;;;;;;;29.63;11.07;;;10.00;51.20;;;;;;6247632;28;20515;-69
2022/03/09 04:09:33;;;;;;;29.67;12.25;;;9.90;51.30;;;;;;6230257;28;20045;-69
2022/03/09 04:12:34;;;;;;;38.40;12.13;;;9.90;51.50;;;;;;6247878;28;20038;-69
2022/03/09 04:15:35;;;;;;;36.58;12.70;;;9.80;51.70;;;;;;6250049;28;20362;-68
2022/03/09 04:18:36;;;;;;;30.50;13.73;;;9.70;51.80;;;;;;6246556;28;20116;-68
2022/03/09 04:21:38;;;;;;;37.08;12.82;;;9.70;51.90;;;;;;6252421;28;20041;-68
2022/03/09 04:24:38;;;;;;;28.80;12.02;;;9.60;52.00;;;;;;6272084;28;20409;-68
2022/03/09 04:27:39;;;;;;;29.10;12.32;;;9.60;52.10;;;;;;6271367;28;20033;-68
2022/03/09 04:30:40;;;;;;;29.65;11.65;;;9.50;52.20;;;;;;6272224;28;20485;-68
2022/03/09 04:33:42;;;;;;;29.67;11.80;;;9.50;52.30;;;;;;6271931;28;20037;-68
2022/03/09 04:36:44;;;;;;;25.85;10.77;;;9.40;52.30;;;;;;6272181;28;20083;-68
2022/03/09 04:39:45;;;;;;;30.63;11.63;;;9.40;52.30;;;;;;6276037;28;20115;-68
2022/03/09 04:42:46;;;;;;;25.30;10.05;;;9.40;52.40;;;;;;6276016;28;20036;-68
2022/03/09 04:45:47;;;;;;;49.70;19.27;;;9.40;52.40;;;;;;6275731;28;20462;-68
2022/03/09 04:48:51;;;;;;;29.38;11.80;;;9.40;52.50;;;;;;6275971;28;20132;-68
2022/03/09 04:51:52;;;;;;;23.17;10.80;;;9.40;52.50;;;;;;6275578;28;20048;-68
2022/03/09 04:54:53;;;;;;;21.95;10.15;;;9.40;52.60;;;;;;6275394;28;20045;-68
2022/03/09 04:57:54;;;;;;;26.33;11.40;;;9.30;52.50;;;;;;6275617;28;20040;-68
2022/03/09 05:00:57;;;;;;;26.00;11.65;;;9.30;52.60;;;;;;6275976;28;20057;-68
2022/03/09 05:03:58;;;;;;;27.63;11.75;;;9.30;52.70;;;;;;6275951;28;20053;-67
2022/03/09 05:06:59;;;;;;;26.00;11.75;;;9.20;52.80;;;;;;6275737;28;20106;-68
2022/03/09 05:10:00;;;;;;;29.90;11.02;;;9.20;52.90;;;;;;6276116;28;20043;-67
2022/03/09 05:13:01;;;;;;;30.05;12.55;;;9.20;52.90;;;;;;6274804;28;20029;-67
2022/03/09 05:16:05;;;;;;;25.50;11.93;;;9.20;53.00;;;;;;6275948;28;20051;-68
2022/03/09 05:19:06;;;;;;;27.65;10.65;;;9.20;53.00;;;;;;6273999;28;20437;-67
2022/03/09 05:22:07;;;;;;;32.97;11.68;;;9.20;53.00;;;;;;6257668;28;20045;-67
2022/03/09 05:25:09;;;;;;;24.00;10.68;;;9.20;53.00;;;;;;6275620;28;20040;-68
2022/03/09 05:28:10;;;;;;;27.17;10.35;;;9.20;52.90;;;;;;6274659;28;20082;-68
2022/03/09 05:31:11;;;;;;;29.20;12.27;;;9.30;52.90;;;;;;6274662;28;20382;-68
2022/03/09 05:34:13;;;;;;;26.77;11.13;;;9.30;52.80;;;;;;6274838;28;20041;-68
2022/03/09 05:37:13;;;;;;;29.35;12.50;;;9.30;52.70;;;;;;6274211;28;20037;-69
2022/03/09 05:40:15;;;;;;;26.67;10.93;;;9.40;52.80;;;;;;6274518;28;20044;-70
2022/03/09 05:43:16;;;;;;;30.00;10.77;;;9.40;52.70;;;;;;6274465;28;20120;-68
2022/03/09 05:46:17;;;;;;;22.88;10.38;;;9.40;52.60;;;;;;6274669;28;20098;-68
2022/03/09 05:49:17;;;;;;;29.55;10.57;;;9.40;52.50;;;;;;6275526;28;20025;-68
2022/03/09 05:52:18;;;;;;;26.15;11.10;;;9.40;52.50;;;;;;6275090;28;20393;-69
2022/03/09 05:55:19;;;;;;;31.13;12.20;;;9.40;52.40;;;;;;6257743;28;20060;-68
2022/03/09 05:58:20;;;;;;;27.27;11.07;;;9.30;52.40;;;;;;6275354;28;20044;-67
2022/03/09 06:01:21;;;;;;;32.35;10.75;;;9.30;52.60;;;;;;6274342;28;20124;-68
2022/03/09 06:04:22;;;;;;;22.73;10.77;;;9.30;52.60;;;;;;6254599;28;20331;-68
2022/03/09 06:07:23;;;;;;;27.10;10.13;;;9.20;52.70;;;;;;6251755;28;20042;-68
2022/03/09 06:10:25;;;;;;;28.98;10.57;;;9.20;52.70;;;;;;6274803;28;20056;-69
2022/03/09 06:13:26;;;;;;;28.35;10.70;;;9.20;52.80;;;;;;6273518;28;20040;-69
2022/03/09 06:16:27;;;;;;;24.95;10.90;;;9.20;52.90;;;;;;6273304;28;20041;-69
2022/03/09 06:19:28;;;;;;;26.73;11.32;;;9.10;52.90;;;;;;6274588;28;20044;-69
2022/03/09 06:22:29;;;;;;;28.42;10.77;;;9.10;53.00;;;;;;6274066;28;20041;-69
2022/03/09 06:25:30;;;;;;;27.75;12.13;;;9.10;53.10;;;;;;6273216;28;20033;-67
2022/03/09 06:28:31;;;;;;;28.08;11.40;;;9.10;53.10;;;;;;6256583;28;20045;-68
2022/03/09 06:31:32;;;;;;;26.83;9.98;;;9.10;53.00;;;;;;6262084;28;20092;-68
2022/03/09 06:34:33;;;;;;;27.45;10.70;;;9.20;53.00;;;;;;6272827;28;20029;-67
2022/03/09 06:37:34;;;;;;;36.05;11.15;;;9.20;53.00;;;;;;6272023;28;20037;-68
2022/03/09 06:40:35;;;;;;;44.70;11.35;;;9.20;53.00;;;;;;6274631;28;20063;-68
2022/03/09 06:43:36;;;;;;;25.42;11.30;;;9.20;52.80;;;;;;6256753;28;20377;-68
2022/03/09 06:46:37;;;;;;;28.00;9.40;;;9.20;52.80;;;;;;6274304;28;20037;-69
2022/03/09 06:49:38;;;;;;;24.52;10.93;;;9.20;52.50;;;;;;6274122;28;20463;-69
2022/03/09 06:52:39;;;;;;;25.70;11.00;;;9.30;52.30;;;;;;6256260;28;20037;-69
2022/03/09 06:55:40;;;;;;;26.25;10.98;;;9.30;52.20;;;;;;6274013;28;20048;-69
2022/03/09 06:58:41;;;;;;;24.95;10.88;;;9.30;52.00;;;;;;6273043;28;20128;-68
2022/03/09 07:01:42;;;;;;;26.17;10.60;;;9.30;51.90;;;;;;6272727;28;20048;-68
2022/03/09 07:04:44;;;;;;;37.47;11.48;;;9.30;51.80;;;;;;6248463;28;20518;-68
2022/03/09 07:07:45;;;;;;;25.92;10.70;;;9.40;51.80;;;;;;6264904;28;20047;-68
2022/03/09 07:10:46;;;;;;;26.25;11.43;;;9.40;51.80;;;;;;6239097;28;20367;-69
2022/03/09 07:13:47;;;;;;;28.05;10.65;;;9.40;51.80;;;;;;6248798;28;20463;-69
2022/03/09 07:16:47;;;;;;;32.28;11.85;;;9.40;51.60;;;;;;6248320;28;20033;-69
2022/03/09 07:19:48;;;;;;;23.17;10.40;;;9.40;51.60;;;;;;6248137;28;20029;-68
2022/03/09 07:22:49;;;;;;;25.08;11.40;;;9.40;51.50;;;;;;6247801;28;20537;-70
2022/03/09 07:25:50;;;;;;;22.60;10.48;;;9.40;51.50;;;;;;6231700;28;20039;-68
2022/03/09 07:28:51;;;;;;;26.15;11.65;;;9.40;51.40;;;;;;6248630;28;20041;-68
2022/03/09 07:31:53;;;;;;;24.95;10.82;;;9.30;51.30;;;;;;6263849;28;20562;-69
2022/03/09 07:34:53;;;;;;;27.85;11.40;;;9.30;51.30;;;;;;6263946;28;20451;-68
2022/03/09 07:37:54;;;;;;;29.20;11.77;;;9.30;51.50;;;;;;6246971;28;20030;-70
2022/03/09 07:40:55;;;;;;;24.25;9.70;;;9.30;51.50;;;;;;6247556;28;20037;-69
2022/03/09 07:43:56;;;;;;;44.13;12.02;;;9.30;51.50;;;;;;6221672;28;20044;-69
2022/03/09 07:46:57;;;;;;;26.58;11.35;;;9.30;51.50;;;;;;6264187;28;20045;-69
2022/03/09 07:49:58;;;;;;;38.05;12.10;;;9.40;51.50;;;;;;6247838;28;20033;-69
2022/03/09 07:52:59;;;;;;;31.42;11.50;;;9.50;51.50;;;;;;6247279;28;20052;-69
2022/03/09 07:56:00;;;;;;;28.65;11.20;;;9.60;51.30;;;;;;6230898;28;20044;-68
2022/03/09 07:59:03;;;;;;;27.77;11.32;;;9.70;51.00;;;;;;6264113;28;20268;-68
2022/03/09 08:02:04;;;;;;;34.88;12.30;;;9.90;50.60;;;;;;6263350;28;20041;-69
2022/03/09 08:05:05;;;;;;;33.90;11.52;;;10.00;50.30;;;;;;6244005;28;20152;-69
2022/03/09 08:08:06;;;;;;;32.05;12.18;;;10.10;49.90;;;;;;6246792;28;20060;-68
2022/03/09 08:11:06;;;;;;;25.92;11.57;;;10.20;49.50;;;;;;6271787;28;20037;-68
2022/03/09 08:14:08;;;;;;;28.05;11.13;;;10.40;49.10;;;;;;6277015;28;20037;-68
2022/03/09 08:17:09;;;;;;;30.13;11.25;;;10.50;48.50;;;;;;6277121;28;20517;-69
2022/03/09 08:20:10;;;;;;;40.15;13.40;;;10.60;48.00;;;;;;6260294;28;20037;-70
2022/03/09 08:23:11;;;;;;;28.77;11.20;;;10.70;48.00;;;;;;6277882;28;20516;-68
2022/03/09 08:26:12;;;;;;;31.55;11.02;;;10.80;47.80;;;;;;6260719;28;20032;-69
2022/03/09 08:29:13;;;;;;;22.60;9.77;;;11.00;47.40;;;;;;6278095;28;20040;-68
2022/03/09 08:32:14;;;;;;;40.63;10.85;;;11.10;47.10;;;;;;6276198;28;20536;-68
2022/03/09 08:35:15;;;;;;;35.58;11.90;;;11.20;46.70;;;;;;6276724;28;20049;-68
2022/03/09 08:38:16;;;;;;;28.48;10.57;;;11.30;46.40;;;;;;6277684;28;20082;-69
2022/03/09 08:41:17;;;;;;;24.02;10.82;;;11.30;46.40;;;;;;6259707;28;20040;-68
2022/03/09 08:44:20;;;;;;;27.65;10.43;;;11.40;46.10;;;;;;6276235;28;20037;-68
2022/03/09 08:47:20;;;;;;;44.45;12.65;;;11.50;46.10;;;;;;6259449;28;20044;-68
2022/03/09 08:50:21;;;;;;;40.20;10.15;;;11.50;46.00;;;;;;6275709;28;20033;-69
2022/03/09 08:53:22;;;;;;;27.80;10.63;;;11.70;45.70;;;;;;6277068;28;20052;-68
2022/03/09 08:56:23;;;;;;;29.02;11.40;;;11.80;45.10;;;;;;6276773;28;20153;-68
2022/03/09 08:59:24;;;;;;;32.55;11.98;;;11.90;45.00;;;;;;6277116;28;20037;-69
2022/03/09 09:02:25;;;;;;;26.67;11.07;;;12.00;44.90;;;;;;6276375;28;20033;-68
2022/03/09 09:05:26;;;;;;;25.13;11.05;;;12.10;44.80;;;;;;6273657;28;20075;-69
2022/03/09 09:08:27;;;;;;;28.92;11.10;;;12.30;44.40;;;;;;6275123;28;20065;-69
2022/03/09 09:11:28;;;;;;;27.52;10.25;;;12.40;44.10;;;;;;6275228;28;20041;-69
2022/03/09 09:14:29;;;;;;;33.25;11.32;;;12.60;43.80;;;;;;6264150;28;20048;-69
2022/03/09 09:17:29;;;;;;;24.55;10.02;;;12.70;43.30;;;;;;6274744;28;20087;-69
2022/03/09 09:20:31;;;;;;;28.65;9.27;;;12.80;43.00;;;;;;6274535;28;20466;-69
2022/03/09 09:23:31;;;;;;;24.42;9.93;;;12.90;42.80;;;;;;6273449;28;20037;-69
2022/03/09 09:26:33;;;;;;;29.58;10.82;;;13.00;42.30;;;;;;6274673;28;20108;-69
2022/03/09 09:29:34;;;;;;;25.63;10.18;;;13.00;42.10;;;;;;6274815;28;20086;-68
2022/03/09 09:32:35;;;;;;;27.48;9.43;;;13.10;42.00;;;;;;6257870;28;20426;-68
2022/03/09 09:35:36;;;;;;;23.27;9.65;;;13.20;41.80;;;;;;6272877;28;20075;-71
2022/03/09 09:38:37;;;;;;;24.63;10.18;;;13.30;41.70;;;;;;6256660;28;20053;-69
2022/03/09 09:41:37;;;;;;;22.35;9.18;;;13.40;41.30;;;;;;6256774;28;20138;-69
2022/03/09 09:44:41;;;;;;;24.13;9.82;;;13.50;41.10;;;;;;6271980;28;20037;-69
2022/03/09 09:47:43;;;;;;;24.70;9.98;;;13.60;41.00;;;;;;6256559;28;20056;-68
2022/03/09 09:50:43;;;;;;;24.63;10.10;;;13.70;40.50;;;;;;6272725;28;20047;-70
2022/03/09 09:53:45;;;;;;;30.65;10.73;;;13.70;40.60;;;;;;6273404;28;20459;-69
2022/03/09 09:56:46;;;;;;;26.35;9.98;;;13.70;40.30;;;;;;6272667;28;20124;-68
2022/03/09 09:59:47;;;;;;;22.95;10.32;;;13.80;40.70;;;;;;6272821;28;20063;-70
2022/03/09 10:02:48;;;;;;;26.58;10.27;;;13.90;40.70;;;;;;6272879;28;20184;-68
2022/03/09 10:05:50;;;;;;;38.38;16.83;;;13.90;40.50;;;;;;6225728;28;1387515;-68
2022/03/09 10:09:12;;;;;;;36.05;16.40;;;14.00;40.10;;;;;;6273610;28;20043;-69
2022/03/09 10:12:13;;;;;;;27.95;11.48;;;14.00;40.00;;;;;;6268746;28;20099;-69
2022/03/09 10:15:16;;;;;;;28.67;11.02;;;14.10;40.00;;;;;;6256744;28;20064;-68
2022/03/09 10:18:19;;;;;;;46.13;17.80;;;14.20;40.00;;;;;;6278284;28;20479;-69
2022/03/09 10:21:23;;;;;;;35.67;12.75;;;14.30;39.70;;;;;;6275440;28;20397;-68
2022/03/09 10:24:34;;;;;;;33.22;13.65;;;14.40;39.60;;;;;;6277373;28;20048;-68
2022/03/09 10:27:35;;;;;;;24.60;10.77;;;14.50;39.50;;;;;;6275070;28;20123;-69
2022/03/09 10:30:39;;;;;;;37.17;11.48;;;14.60;39.50;;;;;;6274048;28;20041;-69
2022/03/09 10:33:40;;;;;;;38.67;14.48;;;14.60;39.40;;;;;;6265805;28;20435;-69
2022/03/09 10:37:06;;;;;;;30.80;13.00;;;14.80;39.70;;;;;;6273667;28;20052;-68
2022/03/09 10:40:10;;;;;;;26.58;11.07;;;15.00;39.60;;;;;;6181779;28;20026;-68
2022/03/09 10:43:23;;;;;;;36.72;16.25;;;15.40;39.00;;;;;;6181261;28;20042;-69
2022/03/09 10:46:24;;;;;;;53.00;17.30;;;15.70;38.10;;;;;;6157462;28;20085;-70
2022/03/09 10:49:25;;;;;;;29.20;11.50;;;16.10;37.30;;;;;;6196449;28;20046;-70
2022/03/09 10:53:00;;;;;;;21.20;9.73;;;16.50;37.10;;;;;;6196879;28;20461;-70
2022/03/09 10:56:01;;;;;;;24.33;9.07;;;16.80;36.40;;;;;;6196629;28;20392;-68
2022/03/09 10:59:14;;;;;;;20.20;8.93;;;17.10;36.00;;;;;;6178073;28;20081;-68
2022/03/09 11:02:19;;;;;;;17.50;8.93;;;17.30;35.40;;;;;;6177270;28;20500;-69
2022/03/09 11:05:22;;;;;;;18.45;9.68;;;17.50;35.20;;;;;;6174979;28;20065;-70
2022/03/09 11:08:28;;;;;;;18.83;9.48;;;17.70;34.80;;;;;;6179643;28;20088;-69
2022/03/09 11:11:30;;;;;;;22.40;8.85;;;17.90;34.90;;;;;;6197048;28;20379;-69
2022/03/09 11:14:31;;;;;;;23.65;9.38;;;18.10;34.60;;;;;;6197265;28;20057;-69
2022/03/09 11:17:33;;;;;;;22.05;8.32;;;18.40;34.40;;;;;;6248703;28;20041;-70
2022/03/09 11:20:34;;;;;;;25.02;9.40;;;18.60;34.00;;;;;;6271311;28;20378;-69
2022/03/09 11:23:39;;;;;;;20.95;8.95;;;18.80;33.70;;;;;;6271245;28;20120;-71
2022/03/09 11:26:51;;;;;;;22.58;9.10;;;19.10;33.00;;;;;;6272041;28;20041;-69
2022/03/09 11:29:57;;;;;;;24.25;8.98;;;19.30;32.40;;;;;;6273001;28;20047;-69
2022/03/09 11:32:59;;;;;;;20.05;8.15;;;19.50;32.10;;;;;;6268451;28;20032;-71
2022/03/09 11:36:00;;;;;;;16.27;8.75;;;19.70;31.90;;;;;;6247911;28;20041;-70
2022/03/09 11:39:03;;;;;;;21.23;8.57;;;19.80;31.70;;;;;;6246761;28;20347;-70
2022/03/09 11:42:22;;;;;;;18.80;9.10;;;20.10;31.40;;;;;;6246679;28;20040;-70
2022/03/09 11:45:27;;;;;;;20.10;9.18;;;20.50;30.60;;;;;;6247351;28;20113;-70
2022/03/09 11:48:55;;;;;;;21.17;8.80;;;20.70;30.00;;;;;;6246202;28;20052;-68
2022/03/09 11:52:06;;;;;;;24.38;8.98;;;21.00;29.60;;;;;;6244776;28;20029;-69
2022/03/09 11:55:18;;;;;;;18.90;9.98;;;21.30;29.40;;;;;;6245496;28;20041;-69
2022/03/09 11:58:19;;;;;;;20.58;8.73;;;21.70;28.80;;;;;;6246024;28;20095;-69
2022/03/09 12:01:20;;;;;;;17.02;8.82;;;21.80;28.40;;;;;;6229800;28;20033;-70
2022/03/09 12:04:40;;;;;;;16.58;7.80;;;22.10;28.00;;;;;;6259258;28;20036;-70
2022/03/09 12:07:42;;;;;;;22.55;8.95;;;22.50;27.40;;;;;;6268028;28;20473;-69
2022/03/09 12:10:54;;;;;;;18.85;7.55;;;23.00;26.80;;;;;;6252992;28;20025;-70
2022/03/09 12:13:55;;;;;;;16.30;6.85;;;23.40;26.10;;;;;;6269421;28;20056;-69
2022/03/09 12:16:59;;;;;;;16.13;7.20;;;23.80;25.70;;;;;;6270830;28;20033;-71
2022/03/09 12:20:21;;;;;;;11.63;6.22;;;24.10;25.40;;;;;;6269307;28;20063;-70
2022/03/09 12:23:22;;;;;;;12.10;6.25;;;24.40;25.00;;;;;;6267121;28;20124;-70
2022/03/09 12:26:43;;;;;;;13.93;7.07;;;24.60;24.70;;;;;;6242997;28;20112;-70
2022/03/09 12:29:44;;;;;;;12.93;5.90;;;24.90;24.40;;;;;;6267402;28;20479;-70
2022/03/09 12:32:45;;;;;;;13.05;5.30;;;25.20;24.00;;;;;;6268120;28;20033;-71
2022/03/09 12:35:46;;;;;;;13.30;5.63;;;25.50;23.70;;;;;;6266913;28;20033;-69
2022/03/09 12:38:57;;;;;;;13.57;5.80;;;25.90;23.40;;;;;;6268774;28;20351;-69
2022/03/09 12:42:00;;;;;;;12.27;5.63;;;26.40;22.90;;;;;;6268336;28;20200;-69
2022/03/09 12:45:02;;;;;;;8.70;5.35;;;26.70;22.40;;;;;;6267322;28;20410;-70
2022/03/09 12:48:03;;;;;;;14.38;5.32;;;26.90;21.80;;;;;;6268667;28;20115;-70
2022/03/09 12:51:04;;;;;;;11.13;5.45;;;27.00;21.50;;;;;;6267241;28;20049;-70
2022/03/09 12:54:06;;;;;;;8.60;5.05;;;27.10;21.10;;;;;;6267109;28;20488;-70
2022/03/09 12:57:12;;;;;;;10.00;5.47;;;27.10;21.00;;;;;;6268176;28;20375;-69
2022/03/09 13:00:16;;;;;;;9.65;4.55;;;27.20;20.90;;;;;;6270482;28;20041;-69
2022/03/09 13:03:17;;;;;;;9.02;4.53;;;27.50;20.70;;;;;;6264107;28;20411;-70
2022/03/09 13:06:29;;;;;;;13.82;5.25;;;27.50;20.50;;;;;;6271580;28;20041;-71
2022/03/09 13:09:30;;;;;;;7.53;4.32;;;27.60;20.30;;;;;;6272006;28;20037;-70
2022/03/09 13:12:31;;;;;;;7.22;3.65;;;27.30;20.20;;;;;;6271893;28;20074;-69
2022/03/09 13:15:51;;;;;;;10.40;4.10;;;26.50;20.80;;;;;;6270967;28;20194;-70
2022/03/09 13:18:56;;;;;;;8.65;4.18;;;25.40;21.50;;;;;;6271337;28;20051;-69
2022/03/09 13:21:57;;;;;;;10.18;4.13;;;24.50;22.30;;;;;;6273478;28;20040;-70
2022/03/09 13:25:03;;;;;;;8.40;4.20;;;23.80;23.10;;;;;;6272336;28;20116;-70
2022/03/09 13:28:08;;;;;;;13.00;4.10;;;23.10;23.80;;;;;;6273374;28;20040;-69
2022/03/09 13:31:09;;;;;;;9.50;4.60;;;22.50;24.60;;;;;;6272083;28;20132;-69
2022/03/09 13:34:14;;;;;;;12.18;4.40;;;21.90;25.40;;;;;;6254961;28;20056;-70
2022/03/09 13:37:20;;;;;;;12.85;5.20;;;21.40;26.10;;;;;;6273662;28;20458;-69
2022/03/09 13:40:21;;;;;;;13.70;3.65;;;21.00;26.60;;;;;;6273011;28;20110;-69
2022/03/09 13:43:26;;;;;;;23.48;4.53;;;20.50;27.20;;;;;;6255228;28;20366;-69
2022/03/09 13:46:26;;;;;;;6.88;4.57;;;20.30;27.80;;;;;;6255215;28;20163;-69
2022/03/09 13:49:27;;;;;;;7.18;4.25;;;20.00;28.20;;;;;;6273250;28;20308;-69
2022/03/09 13:52:30;;;;;;;11.45;4.30;;;19.80;28.70;;;;;;6272503;28;20495;-69
2022/03/09 13:55:37;;;;;;;15.90;4.38;;;19.60;29.20;;;;;;6273083;28;20068;-69
2022/03/09 13:58:40;;;;;;;13.07;4.90;;;19.40;29.70;;;;;;6271219;28;20040;-69
2022/03/09 14:01:41;;;;;;;8.68;4.97;;;19.20;30.00;;;;;;6254169;28;20455;-69
2022/03/09 14:04:46;;;;;;;9.13;4.57;;;19.00;30.30;;;;;;6252842;28;20048;-69
2022/03/09 14:07:47;;;;;;;8.23;4.95;;;18.90;30.90;;;;;;6273595;28;20044;-69
2022/03/09 14:10:51;;;;;;;9.98;4.82;;;18.70;31.20;;;;;;6266966;28;20458;-68
2022/03/09 14:13:59;;;;;;;8.75;4.32;;;18.70;31.40;;;;;;6271644;28;20033;-70
2022/03/09 14:17:00;;;;;;;9.27;4.00;;;18.60;31.50;;;;;;6272418;28;20068;-69
2022/03/09 14:20:01;;;;;;;9.07;3.90;;;18.60;31.50;;;;;;6272338;28;20067;-69
2022/03/09 14:23:04;;;;;;;8.73;3.90;;;18.60;31.60;;;;;;6273404;28;20523;-69
2022/03/09 14:26:05;;;;;;;7.90;4.10;;;18.60;31.60;;;;;;6255819;28;20044;-69
2022/03/09 14:29:06;;;;;;;7.85;3.80;;;18.60;31.90;;;;;;6272318;28;20123;-69
2022/03/09 14:32:08;;;;;;;12.55;4.10;;;18.50;32.00;;;;;;6272643;28;20120;-69
2022/03/09 14:35:15;;;;;;;6.88;3.92;;;18.50;32.10;;;;;;6271384;28;20473;-70
2022/03/09 14:38:16;;;;;;;7.97;4.00;;;18.40;32.30;;;;;;6271173;28;20032;-70
2022/03/09 14:41:16;;;;;;;11.48;3.67;;;18.40;32.50;;;;;;6273109;28;20037;-69
2022/03/09 14:44:18;;;;;;;13.68;3.47;;;18.40;32.60;;;;;;6271790;28;20327;-69
2022/03/09 14:47:18;;;;;;;9.30;4.03;;;18.30;32.70;;;;;;6254848;28;20312;-69
2022/03/09 14:50:19;;;;;;;7.75;3.33;;;18.30;32.80;;;;;;6267330;28;20109;-70
2022/03/09 14:53:25;;;;;;;8.52;3.58;;;18.30;32.80;;;;;;6246759;28;20143;-70
2022/03/09 14:56:25;;;;;;;6.40;3.55;;;18.30;32.80;;;;;;6247593;28;20052;-69
2022/03/09 14:59:27;;;;;;;7.28;3.75;;;18.30;33.00;;;;;;6247588;28;20040;-69
2022/03/09 15:02:28;;;;;;;5.55;3.10;;;18.20;33.00;;;;;;6248758;28;20029;-70
2022/03/09 15:05:29;;;;;;;9.48;4.38;;;18.30;33.20;;;;;;6265611;28;20049;-69
2022/03/09 15:08:31;;;;;;;12.07;3.67;;;18.30;33.20;;;;;;6271156;28;20037;-69
2022/03/09 15:11:32;;;;;;;6.55;3.58;;;18.30;33.10;;;;;;6271386;28;20100;-68
2022/03/09 15:14:33;;;;;;;9.43;3.17;;;18.30;33.20;;;;;;6272536;28;20043;-70
2022/03/09 15:17:33;;;;;;;10.80;4.10;;;18.20;33.20;;;;;;6270666;28;20416;-69
2022/03/09 15:20:35;;;;;;;10.93;4.00;;;18.20;33.30;;;;;;6270690;28;20052;-69
2022/03/09 15:23:36;;;;;;;5.55;3.08;;;18.20;33.40;;;;;;6272101;28;20421;-69
2022/03/09 15:26:37;;;;;;;10.93;3.75;;;18.20;33.40;;;;;;6270717;28;20052;-69
2022/03/09 15:29:38;;;;;;;5.82;3.47;;;18.20;33.50;;;;;;6271879;28;20094;-69
2022/03/09 15:32:39;;;;;;;7.35;3.38;;;18.10;33.40;;;;;;6272863;28;20048;-70
2022/03/09 15:35:41;;;;;;;6.55;3.50;;;18.10;33.50;;;;;;6271680;28;20047;-69
2022/03/09 15:38:42;;;;;;;8.27;3.80;;;18.10;33.60;;;;;;6271890;28;20029;-69